Flight Track Log - Related Links

Times and Time Zones

All times are in EDT time to prevent confusion due to time zone crossing. See the GJS3707 flight status page for this flight to view local times or setup timezone preferences in your user account.

Time Position Orientation Groundspeed Altitude Reporting Facility
EDT Latitude Longitude Course Direction KTS MPH feet Rate Location/Type
Thu 11:01:36 AM 42.0000 -87.9500 261° West 175 201 1,600  Level Chicago TRACON
Thu 11:02:36 AM 42.0333 -88.0000 312° West 225 259 2,900 1,700 Climbing Chicago TRACON
Thu 11:03:36 AM 42.0500 -88.1000 283° West 265 305 5,000 2,163 Climbing Chicago TRACON
Thu 11:05:00 AM 41.8936 -88.6637 261° West  Level FlightAware Approximate
Thu 11:05:03 AM 42.0256 -88.2258 255° West 280 322 8,200  Level Chicago Center
Thu 11:06:00 AM 41.8757 -88.8174 261° West  Level FlightAware Approximate
Thu 11:06:05 AM 42.0078 -88.3236 256° West 280 322 10,400  Level Chicago Center
Thu 11:07:00 AM 41.8577 -88.9745 261° West  Level FlightAware Approximate
Thu 11:07:07 AM 42.0206 -88.4292 279° West 287 330 12,400  Level Chicago Center
Thu 11:08:09 AM 42.0383 -88.5564 281° West 292 336 14,500 1,355 Climbing Chicago Center
Thu 11:09:11 AM 42.0517 -88.6842 278° West 350 403 15,200 1,113 Climbing Chicago Center
Thu 11:10:13 AM 42.0403 -88.8161 263° West 364 419 16,800 1,452 Climbing Chicago Center
Thu 11:11:15 AM 42.0400 -88.9461 270° West 365 420 18,200 1,355 Climbing Chicago Center
Thu 11:12:17 AM 42.0569 -89.0811 280° West 371 427 19,600 1,306 Climbing Chicago Center
Thu 11:13:19 AM 42.0625 -89.2508 273° West 383 441 20,900 1,113 Climbing Chicago Center
Thu 11:14:21 AM 42.0653 -89.3978 272° West 396 456 21,900 1,016 Climbing Chicago Center
Thu 11:15:23 AM 42.0686 -89.5608 272° West 408 470 23,000 968 Climbing Chicago Center
Thu 11:16:25 AM 42.0728 -89.7033 272° West 417 480 23,900 1,016 Climbing Chicago Center
Thu 11:17:27 AM 42.0758 -89.8858 271° West 417 480 25,100 1,065 Climbing Chicago Center
Thu 11:18:29 AM 42.0786 -90.0386 271° West 422 486 26,100 919 Climbing Chicago Center
Thu 11:19:31 AM 42.0811 -90.1958 271° West 425 489 27,000 774 Climbing Chicago Center
Thu 11:20:33 AM 42.0836 -90.3558 271° West 430 495 27,700 726 Climbing Chicago Center
Thu 11:21:35 AM 42.0872 -90.5194 272° West 438 504 28,500 774 Climbing Chicago Center
Thu 11:22:37 AM 42.0889 -90.7181 271° West 444 511 29,300 726 Climbing Chicago Center
Thu 11:23:39 AM 42.0903 -90.8858 271° West 449 517 30,000 339 Climbing Chicago Center
Thu 11:24:41 AM 42.0917 -91.0575 271° West 460 529 30,000  Level Chicago Center
Thu 11:25:42 AM 42.0928 -91.2261 271° West 457 526 30,000  Level Chicago Center
Thu 11:26:44 AM 42.0944 -91.3961 271° West 455 524 30,000  Level Chicago Center
Thu 11:27:46 AM 42.0953 -91.5661 270° West 455 524 30,000  Level Chicago Center
Thu 11:28:48 AM 42.0956 -91.7722 270° West 460 529 30,000  Level Chicago Center
Thu 11:30:52 AM 42.0964 -92.1139 270° West 460 529 30,000  Level Chicago Center
Thu 11:31:54 AM 42.0956 -92.2842 270° West 461 531 30,000  Level Chicago Center
Thu 11:32:56 AM 42.0942 -92.4539 269° West 457 526 30,000  Level Chicago Center
Thu 11:33:58 AM 42.0944 -92.6611 270° West 461 531 30,000  Level Chicago Center
Thu 11:35:00 AM 42.0922 -92.8336 269° West 463 533 30,000  Level Chicago Center
Thu 11:36:02 AM 42.0925 -93.0072 270° West 467 537 30,000  Level Chicago Center
Thu 11:37:04 AM 42.0914 -93.1831 270° West 471 542 30,000  Level Chicago Center
Thu 11:38:06 AM 42.1253 -93.3506 285° West 468 539 30,000  Level Chicago Center
Thu 11:39:07 AM 42.1519 -93.5200 282° West 480 552 30,000  Level Chicago Center
Thu 11:40:09 AM 42.1597 -93.7311 273° West 471 542 30,000  Level Chicago Center
Thu 11:41:11 AM 42.1642 -93.9072 272° West 475 547 30,000  Level Chicago Center
Thu 11:42:13 AM 42.1689 -94.0828 272° West 473 544 30,000  Level Chicago Center
Thu 11:43:15 AM 42.1731 -94.2572 272° West 472 543 30,000  Level Chicago Center
Thu 11:44:43 AM 42.1808 -94.5092 272° West 471 542 30,000  Level Minneapolis Center
Thu 11:45:45 AM 42.1858 -94.7214 272° West 475 547 30,000  Level Minneapolis Center
Thu 11:46:47 AM 42.1894 -94.8975 272° West 474 545 30,000  Level Minneapolis Center
Thu 11:47:49 AM 42.1919 -95.0717 271° West 467 537 30,000  Level Minneapolis Center
Thu 11:48:51 AM 42.1950 -95.2494 271° West 474 545 30,000  Level Minneapolis Center
Thu 11:49:54 AM 42.1975 -95.4264 271° West 475 547 30,000  Level Minneapolis Center
Thu 11:50:56 AM 42.2008 -95.6394 271° West 476 548 30,000  Level Minneapolis Center
Thu 11:51:58 AM 42.2028 -95.8156 271° West 474 545 30,000  Level Minneapolis Center
Thu 11:53:00 AM 42.2044 -95.9908 271° West 471 542 30,000  Level Minneapolis Center
Thu 11:54:02 AM 42.2058 -96.1631 271° West 466 536 30,000  Level Minneapolis Center
Thu 11:55:04 AM 42.2075 -96.3361 271° West 464 534 30,000  Level Minneapolis Center
Thu 11:56:06 AM 42.2081 -96.5108 270° West 466 536 30,000  Level Minneapolis Center
Thu 11:57:08 AM 42.2083 -96.7189 270° West 467 537 30,000  Level Minneapolis Center
Thu 11:58:10 AM 42.2094 -96.8894 271° West 461 531 30,000  Level Minneapolis Center
Thu 11:59:12 AM 42.2097 -97.0611 270° West 459 528 30,000  Level Minneapolis Center
Thu 12:00:14 PM 42.2089 -97.2344 270° West 462 532 30,000  Level Minneapolis Center
Thu 12:01:16 PM 42.2094 -97.4069 270° West 462 532 30,000  Level Minneapolis Center
Thu 12:02:18 PM 42.2086 -97.6158 270° West 465 535 30,000  Level Minneapolis Center
Thu 12:03:59 PM 42.2061 -97.8922 269° West 461 531 30,000  Level Denver Center
Thu 12:05:01 PM 42.2047 -98.0839 270° West 460 529 30,000  Level Denver Center
Thu 12:06:03 PM 42.2028 -98.2486 269° West 460 529 30,000  Level Denver Center
Thu 12:07:05 PM 42.2014 -98.4169 269° West 466 536 30,000  Level Denver Center
Thu 12:08:07 PM 42.1989 -98.6081 269° West 461 531 30,000  Level Denver Center
Thu 12:09:09 PM 42.1967 -98.7756 269° West 464 534 30,000  Level Denver Center
Thu 12:10:12 PM 42.1947 -98.9700 269° West 466 536 30,000  Level Denver Center
Thu 12:11:14 PM 42.1911 -99.1342 268° West 461 531 30,000  Level Denver Center
Thu 12:13:18 PM 42.1842 -99.4939 269° West 463 533 30,000  Level Denver Center
Thu 12:14:20 PM 42.1794 -99.6867 268° West 463 533 30,000  Level Denver Center
Thu 12:15:22 PM 42.1750 -99.8519 268° West 461 531 30,000  Level Denver Center
Thu 12:16:24 PM 42.1717 -100.0461 269° West 464 534 30,000  Level Denver Center
Thu 12:17:26 PM 42.1667 -100.2117 268° West 464 534 30,000  Level Denver Center
Thu 12:18:28 PM 42.1619 -100.4053 268° West 465 535 30,000  Level Denver Center
Thu 12:19:30 PM 42.1569 -100.5694 268° West 460 529 30,000  Level Denver Center
Thu 12:20:32 PM 42.1506 -100.7611 267° West 460 529 30,000  Level Denver Center
Thu 12:21:34 PM 42.1461 -100.9264 268° West 462 532 30,000  Level Denver Center
Thu 12:22:36 PM 42.1400 -101.1164 268° West 458 527 30,000  Level Denver Center
Thu 12:23:38 PM 42.1339 -101.2803 267° West 458 527 30,000  Level Denver Center
Thu 12:24:41 PM 42.1264 -101.4731 267° West 461 531 30,000  Level Denver Center
Thu 12:25:43 PM 42.1203 -101.6386 267° West 463 533 30,000  Level Denver Center
Thu 12:26:45 PM 42.1122 -101.8308 267° West 462 532 30,000  Level Denver Center
Thu 12:27:47 PM 42.1053 -101.9956 267° West 463 533 30,000  Level Denver Center
Thu 12:28:49 PM 42.0983 -102.1889 267° West 464 534 30,000  Level Denver Center
Thu 12:29:51 PM 42.0894 -102.3439 266° West 463 533 30,000  Level Denver Center
Thu 12:30:53 PM 42.0811 -102.5361 267° West 461 531 30,000  Level Denver Center
Thu 12:31:55 PM 42.0731 -102.7000 266° West 458 527 30,000  Level Denver Center
Thu 12:32:57 PM 42.0636 -102.8925 266° West 460 529 30,000  Level Denver Center
Thu 12:33:59 PM 42.0553 -103.0547 266° West 455 524 30,000  Level Denver Center
Thu 12:35:01 PM 42.0447 -103.2461 266° West 459 528 30,000  Level Denver Center
Thu 12:36:03 PM 42.0361 -103.4069 266° West 454 522 30,000  Level Denver Center
Thu 12:37:05 PM 42.0247 -103.5972 265° West 455 524 30,000  Level Denver Center
Thu 12:38:07 PM 42.0161 -103.7594 266° West 455 524 30,000  Level Denver Center
Thu 12:39:09 PM 42.0056 -103.9486 266° West 454 522 30,000  Level Denver Center
Thu 12:40:11 PM 41.9950 -104.1114 265° West 453 521 30,000  Level Denver Center
Thu 12:41:13 PM 41.9856 -104.2733 266° West 454 522 30,000  Level Denver Center
Thu 12:42:16 PM 41.9725 -104.4614 265° West 453 521 30,000  Level Denver Center
Thu 12:43:18 PM 41.9636 -104.6217 266° West 449 517 30,000  Level Denver Center
Thu 12:44:20 PM 41.9506 -104.8108 265° West 452 520 30,000  Level Denver Center
Thu 12:45:22 PM 41.9403 -104.9708 265° West 450 518 30,000  Level Denver Center
Thu 12:46:24 PM 41.9269 -105.1569 265° West 448 516 30,000  Level Denver Center
Thu 12:47:26 PM 41.9164 -105.3172 265° West 449 517 30,000  Level Denver Center
Thu 12:48:28 PM 41.9014 -105.5006 264° West 440 506 30,000  Level Denver Center
Thu 12:49:30 PM 41.8892 -105.6589 264° West 444 511 30,000  Level Denver Center
Thu 12:50:32 PM 41.8778 -105.8178 265° West 447 514 30,000  Level Denver Center
Thu 12:51:34 PM 41.8650 -106.0011 265° West 442 509 30,000  Level Denver Center
Thu 12:52:36 PM 41.8531 -106.1583 264° West 444 511 30,000  Level Denver Center
Thu 12:53:38 PM 41.8372 -106.3411 263° West 441 507 30,000  Level Denver Center
Thu 12:54:40 PM 41.8225 -106.5172 264° West 441 507 30,000  Level Denver Center
Thu 12:55:42 PM 41.8106 -106.6744 264° West 441 507 30,000  Level Denver Center
Thu 12:56:44 PM 41.7969 -106.8306 263° West 440 506 30,000  Level Denver Center
Thu 12:57:47 PM 41.7822 -107.0119 264° West 438 504 30,000  Level Denver Center
Thu 12:58:49 PM 41.7683 -107.1681 263° West 442 509 30,000  Level Denver Center
Thu 12:59:51 PM 41.7519 -107.3483 263° West 438 504 30,000  Level Denver Center
Thu 01:00:22 PM 41.7453 -107.4269 264° West 436 502 30,000  Level Salt Lake Center
Thu 01:01:24 PM 41.7292 -107.6097 263° West 442 509 30,000  Level Salt Lake Center
Thu 01:01:55 PM 41.7222 -107.6861 263° West 442 509 30,000  Level Denver Center
Thu 01:02:57 PM 41.7069 -107.8419 263° West 443 510 30,000  Level Denver Center
Thu 01:03:28 PM 41.6972 -107.9472 263° West 444 511 30,000  Level Salt Lake Center
Thu 01:04:30 PM 41.6814 -108.1028 262° West 442 509 30,000  Level Salt Lake Center
Thu 01:05:01 PM 41.6750 -108.1789 264° West 442 509 30,000  Level Denver Center
Thu 01:06:03 PM 41.6575 -108.3597 263° West 441 507 30,000  Level Denver Center
Thu 01:06:34 PM 41.6486 -108.4372 261° West 439 505 30,000  Level Salt Lake Center
Thu 01:07:36 PM 41.6308 -108.6175 263° West 439 505 30,000  Level Salt Lake Center
Thu 01:08:38 PM 41.6075 -108.7692 258° West 439 505 30,000  Level Salt Lake Center
Thu 01:09:40 PM 41.5653 -108.9392 252° West 436 502 30,000  Level Salt Lake Center
Thu 01:10:42 PM 41.5556 -109.0881 265° West 451 519 30,000  Level Salt Lake Center
Thu 01:11:44 PM 41.6639 -109.1981 323° Northwest 451 519 30,000  Level Salt Lake Center
Thu 01:12:46 PM 41.7136 -109.3372 296° West 440 506 30,000  Level Salt Lake Center
Thu 01:13:48 PM 41.7717 -109.5031 295° West 440 506 30,000  Level Salt Lake Center
Thu 01:14:50 PM 41.8236 -109.6444 296° West 442 509 30,000  Level Salt Lake Center
Thu 01:15:52 PM 41.8833 -109.8081 296° West 441 507 30,000  Level Salt Lake Center
Thu 01:16:55 PM 41.9350 -109.9506 296° West 443 510 30,000  Level Salt Lake Center
Thu 01:17:57 PM 41.9942 -110.1153 296° West 440 506 30,000  Level Salt Lake Center
Thu 01:18:59 PM 42.0461 -110.2575 296° West 442 509 30,000  Level Salt Lake Center
Thu 01:20:01 PM 42.1053 -110.4239 296° West 442 509 30,000  Level Salt Lake Center
Thu 01:21:03 PM 42.1558 -110.5661 296° West 440 506 30,000  Level Salt Lake Center
Thu 01:22:05 PM 42.2064 -110.7075 296° West 440 506 30,000  Level Salt Lake Center
Thu 01:23:07 PM 42.2647 -110.8731 296° West 438 504 30,000  Level Salt Lake Center
Thu 01:24:09 PM 42.3192 -111.0317 295° West 437 503 30,000  Level Salt Lake Center
Thu 01:25:11 PM 42.3714 -111.1786 296° West 436 502 30,000  Level Salt Lake Center
Thu 01:26:13 PM 42.4222 -111.3264 295° West 436 502 30,000  Level Salt Lake Center
Thu 01:27:15 PM 42.4725 -111.4736 295° West 434 499 30,000  Level Salt Lake Center
Thu 01:28:17 PM 42.5239 -111.6197 296° West 433 498 30,000  Level Salt Lake Center
Thu 01:29:19 PM 42.5836 -111.7978 295° West 434 499 30,000  Level Salt Lake Center
Thu 01:30:21 PM 42.6344 -111.9469 295° West 436 502 30,000  Level Salt Lake Center
Thu 01:31:23 PM 42.6850 -112.0969 295° West 439 505 30,000  Level Salt Lake Center
Thu 01:32:25 PM 42.7431 -112.2661 295° West 441 507 30,000  Level Salt Lake Center
Thu 01:33:27 PM 42.7914 -112.4114 294° West 440 506 30,000  Level Salt Lake Center
Thu 01:34:29 PM 42.8394 -112.5581 294° West 442 509 30,000  Level Salt Lake Center
Thu 01:35:31 PM 42.8878 -112.7308 291° West 436 502 30,000  Level Salt Lake Center
Thu 01:36:33 PM 42.9189 -112.8833 286° West 435 501 30,000  Level Salt Lake Center
Thu 01:37:36 PM 42.9556 -113.0597 286° West 435 501 30,000  Level Salt Lake Center
Thu 01:38:38 PM 42.9864 -113.2100 286° West 430 495 30,000  Level Salt Lake Center
Thu 01:39:40 PM 43.0236 -113.3878 286° West 435 501 30,000  Level Salt Lake Center
Thu 01:40:42 PM 43.0539 -113.5392 285° West 432 497 30,000 -145 Level Salt Lake Center
Thu 01:41:44 PM 43.0889 -113.7164 285° West 432 497 29,700 -581 Descending Salt Lake Center
Thu 01:42:46 PM 43.1186 -113.8733 285° West 438 504 28,800 -1,258 Descending Salt Lake Center
Thu 01:43:48 PM 43.1481 -114.0247 285° West 408 470 27,100 -1,597 Descending Salt Lake Center
Thu 01:44:50 PM 43.1761 -114.1703 285° West 397 457 25,500 -1,645 Descending Salt Lake Center
Thu 01:45:52 PM 43.2108 -114.3356 286° West 391 450 23,700 -1,597 Descending Salt Lake Center
Thu 01:46:54 PM 43.2369 -114.4744 285° West 391 450 22,200 -1,597 Descending Salt Lake Center
Thu 01:47:56 PM 43.2675 -114.6331 285° West 386 444 20,400 -1,597 Descending Salt Lake Center
Thu 01:48:58 PM 43.2942 -114.7686 285° West 382 440 18,900 -1,355 Descending Salt Lake Center
Thu 01:50:00 PM 43.3194 -114.9075 284° West 365 420 17,600 -1,210 Descending Salt Lake Center
Thu 01:51:02 PM 43.3453 -115.0447 285° West 353 406 16,400 -1,210 Descending Salt Lake Center
Thu 01:52:04 PM 43.3694 -115.1767 284° West 344 396 15,100 -1,210 Descending Salt Lake Center
Thu 01:53:06 PM 43.3936 -115.3078 284° West 336 387 13,900 -1,210 Descending Salt Lake Center
Thu 01:54:08 PM 43.4181 -115.4389 284° West 339 390 12,600 -1,113 Descending Salt Lake Center
Thu 01:55:10 PM 43.4403 -115.5656 284° West 330 380 11,600 -1,016 Descending Salt Lake Center
Thu 01:56:12 PM 43.4733 -115.6794 292° West 303 349 10,500 -774 Descending Salt Lake Center
Thu 01:57:14 PM 43.5103 -115.7881 295° West 301 346 10,000 -242 Descending Salt Lake Center
Thu 01:58:16 PM 43.5414 -115.8797 295° West 279 321 10,000  Level Salt Lake Center
Thu 01:59:18 PM 43.5733 -115.9736 295° West 260 299 10,000 -435 Level Salt Lake Center
Thu 02:00:20 PM 43.6033 -116.0578 296° West 236 272 9,100 -960 Descending Salt Lake Center
Thu 02:01:23 PM 43.6311 -116.1422 294° West 232 267 8,000 -528 Descending Salt Lake Center
Thu 02:02:25 PM 43.6561 -116.2242 293° West 234 269 8,000  Level Salt Lake Center
Thu 02:03:27 PM 43.6839 -116.3119 294° West 224 258 8,000 -484 Level Salt Lake Center
Thu 02:04:29 PM 43.6936 -116.3886 280° West 220 253 7,000 -968 Descending Salt Lake Center

Login

Don't have an account? Register now (free) for customized features, flight alerts, and more!